sensor_id;sensor_type;location;lat;lon;timestamp;P1;durP1;ratioP1;P2;durP2;ratioP2
6787;SDS011;3431;47.966;10.268;2022-08-04T00:00:26;1.42;;;1.33;;
6787;SDS011;3431;47.966;10.268;2022-08-04T00:00:52;2.15;;;1.55;;
6787;SDS011;3431;47.966;10.268;2022-08-04T00:01:25;1.50;;;1.40;;
6787;SDS011;3431;47.966;10.268;2022-08-04T00:01:52;1.60;;;1.50;;
6787;SDS011;3431;47.966;10.268;2022-08-04T00:02:23;1.50;;;1.40;;
6787;SDS011;3431;47.966;10.268;2022-08-04T00:02:53;1.33;;;1.33;;
6787;SDS011;3431;47.966;10.268;2022-08-04T00:03:23;1.92;;;1.83;;
6787;SDS011;3431;47.966;10.268;2022-08-04T00:03:49;2.03;;;1.63;;
6787;SDS011;3431;47.966;10.268;2022-08-04T00:04:23;1.58;;;1.48;;
6787;SDS011;3431;47.966;10.268;2022-08-04T00:04:52;1.42;;;1.33;;
6787;SDS011;3431;47.966;10.268;2022-08-04T00:05:18;1.50;;;1.40;;
6787;SDS011;3431;47.966;10.268;2022-08-04T00:05:51;1.52;;;1.42;;
6787;SDS011;3431;47.966;10.268;2022-08-04T00:06:21;2.00;;;1.53;;
6787;SDS011;3431;47.966;10.268;2022-08-04T00:06:54;3.15;;;1.33;;
6787;SDS011;3431;47.966;10.268;2022-08-04T00:07:25;1.60;;;1.50;;
6787;SDS011;3431;47.966;10.268;2022-08-04T00:07:54;1.60;;;1.50;;
6787;SDS011;3431;47.966;10.268;2022-08-04T00:08:27;1.80;;;1.63;;
6787;SDS011;3431;47.966;10.268;2022-08-04T00:08:55;1.97;;;1.87;;
6787;SDS011;3431;47.966;10.268;2022-08-04T00:09:20;2.00;;;1.90;;
6787;SDS011;3431;47.966;10.268;2022-08-04T00:09:51;1.60;;;1.50;;
6787;SDS011;3431;47.966;10.268;2022-08-04T00:10:16;1.52;;;1.42;;
6787;SDS011;3431;47.966;10.268;2022-08-04T00:10:40;1.55;;;1.45;;
6787;SDS011;3431;47.966;10.268;2022-08-04T00:11:05;1.58;;;1.48;;
6787;SDS011;3431;47.966;10.268;2022-08-04T00:11:30;1.50;;;1.40;;
6787;SDS011;3431;47.966;10.268;2022-08-04T00:11:53;1.30;;;1.30;;
6787;SDS011;3431;47.966;10.268;2022-08-04T00:12:20;1.52;;;1.42;;
6787;SDS011;3431;47.966;10.268;2022-08-04T00:12:46;1.50;;;1.40;;
6787;SDS011;3431;47.966;10.268;2022-08-04T00:13:10;1.50;;;1.40;;
6787;SDS011;3431;47.966;10.268;2022-08-04T00:13:34;1.40;;;1.30;;
6787;SDS011;3431;47.966;10.268;2022-08-04T00:14:01;1.70;;;1.60;;
6787;SDS011;3431;47.966;10.268;2022-08-04T00:14:25;1.60;;;1.50;;
6787;SDS011;3431;47.966;10.268;2022-08-04T00:14:54;1.58;;;1.40;;
6787;SDS011;3431;47.966;10.268;2022-08-04T00:15:18;1.67;;;1.58;;
6787;SDS011;3431;47.966;10.268;2022-08-04T00:15:42;1.73;;;1.63;;
6787;SDS011;3431;47.966;10.268;2022-08-04T00:16:06;1.65;;;1.55;;
6787;SDS011;3431;47.966;10.268;2022-08-04T00:16:31;1.50;;;1.40;;
6787;SDS011;3431;47.966;10.268;2022-08-04T00:16:55;1.80;;;1.50;;
6787;SDS011;3431;47.966;10.268;2022-08-04T00:17:18;2.30;;;1.50;;
6787;SDS011;3431;47.966;10.268;2022-08-04T00:17:44;1.73;;;1.38;;
6787;SDS011;3431;47.966;10.268;2022-08-04T00:18:09;1.30;;;1.20;;
6787;SDS011;3431;47.966;10.268;2022-08-04T00:18:38;1.60;;;1.50;;
6787;SDS011;3431;47.966;10.268;2022-08-04T00:19:02;1.85;;;1.45;;
6787;SDS011;3431;47.966;10.268;2022-08-04T00:19:29;1.43;;;1.33;;
6787;SDS011;3431;47.966;10.268;2022-08-04T00:19:58;1.73;;;1.63;;
6787;SDS011;3431;47.966;10.268;2022-08-04T00:20:21;1.73;;;1.63;;
6787;SDS011;3431;47.966;10.268;2022-08-04T00:20:49;1.70;;;1.60;;
6787;SDS011;3431;47.966;10.268;2022-08-04T00:21:19;1.80;;;1.70;;
6787;SDS011;3431;47.966;10.268;2022-08-04T00:21:45;1.60;;;1.50;;
6787;SDS011;3431;47.966;10.268;2022-08-04T00:22:11;1.80;;;1.70;;
6787;SDS011;3431;47.966;10.268;2022-08-04T00:22:38;1.65;;;1.55;;
6787;SDS011;3431;47.966;10.268;2022-08-04T00:23:02;1.67;;;1.58;;
6787;SDS011;3431;47.966;10.268;2022-08-04T00:23:26;1.50;;;1.40;;
6787;SDS011;3431;47.966;10.268;2022-08-04T00:23:49;2.80;;;1.70;;
6787;SDS011;3431;47.966;10.268;2022-08-04T00:24:13;2.65;;;1.60;;
6787;SDS011;3431;47.966;10.268;2022-08-04T00:24:36;1.60;;;1.50;;
6787;SDS011;3431;47.966;10.268;2022-08-04T00:24:59;1.70;;;1.60;;
6787;SDS011;3431;47.966;10.268;2022-08-04T00:25:23;1.50;;;1.40;;
6787;SDS011;3431;47.966;10.268;2022-08-04T00:25:45;1.60;;;1.50;;
6787;SDS011;3431;47.966;10.268;2022-08-04T00:26:08;1.52;;;1.42;;
6787;SDS011;3431;47.966;10.268;2022-08-04T00:26:30;1.60;;;1.50;;
6787;SDS011;3431;47.966;10.268;2022-08-04T00:26:53;1.80;;;1.70;;
6787;SDS011;3431;47.966;10.268;2022-08-04T00:27:14;1.73;;;1.63;;
6787;SDS011;3431;47.966;10.268;2022-08-04T00:27:37;1.50;;;1.40;;
6787;SDS011;3431;47.966;10.268;2022-08-04T00:27:59;1.40;;;1.30;;
6787;SDS011;3431;47.966;10.268;2022-08-04T00:28:21;1.65;;;1.55;;
6787;SDS011;3431;47.966;10.268;2022-08-04T00:28:44;1.60;;;1.50;;
6787;SDS011;3431;47.966;10.268;2022-08-04T00:29:07;1.70;;;1.60;;
6787;SDS011;3431;47.966;10.268;2022-08-04T00:29:31;1.60;;;1.50;;
6787;SDS011;3431;47.966;10.268;2022-08-04T00:29:53;2.00;;;1.50;;
6787;SDS011;3431;47.966;10.268;2022-08-04T00:30:15;1.60;;;1.50;;
6787;SDS011;3431;47.966;10.268;2022-08-04T00:30:37;1.60;;;1.50;;
6787;SDS011;3431;47.966;10.268;2022-08-04T00:31:04;2.00;;;1.80;;
6787;SDS011;3431;47.966;10.268;2022-08-04T00:31:29;2.22;;;1.83;;
6787;SDS011;3431;47.966;10.268;2022-08-04T00:31:51;1.67;;;1.58;;
6787;SDS011;3431;47.966;10.268;2022-08-04T00:32:15;1.50;;;1.40;;
6787;SDS011;3431;47.966;10.268;2022-08-04T00:32:39;1.80;;;1.60;;
6787;SDS011;3431;47.966;10.268;2022-08-04T00:33:02;2.17;;;1.60;;
6787;SDS011;3431;47.966;10.268;2022-08-04T00:33:24;1.60;;;1.50;;
6787;SDS011;3431;47.966;10.268;2022-08-04T00:33:46;1.67;;;1.58;;
6787;SDS011;3431;47.966;10.268;2022-08-04T00:34:09;1.60;;;1.50;;
6787;SDS011;3431;47.966;10.268;2022-08-04T00:34:34;1.65;;;1.55;;
6787;SDS011;3431;47.966;10.268;2022-08-04T00:34:56;1.50;;;1.40;;
6787;SDS011;3431;47.966;10.268;2022-08-04T00:35:18;1.80;;;1.70;;
6787;SDS011;3431;47.966;10.268;2022-08-04T00:35:41;1.70;;;1.60;;
6787;SDS011;3431;47.966;10.268;2022-08-04T00:36:04;1.60;;;1.50;;
6787;SDS011;3431;47.966;10.268;2022-08-04T00:36:26;1.83;;;1.73;;
6787;SDS011;3431;47.966;10.268;2022-08-04T00:36:49;1.45;;;1.35;;
6787;SDS011;3431;47.966;10.268;2022-08-04T00:37:14;1.70;;;1.42;;
6787;SDS011;3431;47.966;10.268;2022-08-04T00:37:36;2.28;;;1.50;;
6787;SDS011;3431;47.966;10.268;2022-08-04T00:37:58;1.85;;;1.70;;
6787;SDS011;3431;47.966;10.268;2022-08-04T00:38:21;1.85;;;1.63;;
6787;SDS011;3431;47.966;10.268;2022-08-04T00:38:45;1.60;;;1.50;;
6787;SDS011;3431;47.966;10.268;2022-08-04T00:39:07;1.85;;;1.75;;
6787;SDS011;3431;47.966;10.268;2022-08-04T00:39:32;1.70;;;1.60;;
6787;SDS011;3431;47.966;10.268;2022-08-04T00:39:54;1.42;;;1.33;;
6787;SDS011;3431;47.966;10.268;2022-08-04T00:40:28;1.65;;;1.40;;
6787;SDS011;3431;47.966;10.268;2022-08-04T00:40:57;1.63;;;1.52;;
6787;SDS011;3431;47.966;10.268;2022-08-04T00:41:29;1.60;;;1.50;;
6787;SDS011;3431;47.966;10.268;2022-08-04T00:42:08;2.30;;;1.60;;
6787;SDS011;3431;47.966;10.268;2022-08-04T00:42:41;2.40;;;1.60;;
6787;SDS011;3431;47.966;10.268;2022-08-04T00:43:09;3.03;;;1.60;;
6787;SDS011;3431;47.966;10.268;2022-08-04T00:43:39;1.80;;;1.50;;
6787;SDS011;3431;47.966;10.268;2022-08-04T00:44:12;1.45;;;1.35;;
6787;SDS011;3431;47.966;10.268;2022-08-04T00:44:50;1.50;;;1.40;;
6787;SDS011;3431;47.966;10.268;2022-08-04T00:45:33;1.63;;;1.52;;
6787;SDS011;3431;47.966;10.268;2022-08-04T00:46:26;1.45;;;1.35;;
6787;SDS011;3431;47.966;10.268;2022-08-04T00:47:03;1.70;;;1.60;;
6787;SDS011;3431;47.966;10.268;2022-08-04T00:47:38;1.50;;;1.40;;
6787;SDS011;3431;47.966;10.268;2022-08-04T00:48:14;1.60;;;1.50;;
6787;SDS011;3431;47.966;10.268;2022-08-04T00:48:55;1.45;;;1.35;;
6787;SDS011;3431;47.966;10.268;2022-08-04T00:50:18;1.85;;;1.75;;
6787;SDS011;3431;47.966;10.268;2022-08-04T00:50:51;1.80;;;1.70;;
6787;SDS011;3431;47.966;10.268;2022-08-04T00:51:29;2.70;;;1.60;;
6787;SDS011;3431;47.966;10.268;2022-08-04T00:52:00;1.85;;;1.75;;
6787;SDS011;3431;47.966;10.268;2022-08-04T00:52:32;1.60;;;1.50;;
6787;SDS011;3431;47.966;10.268;2022-08-04T00:53:05;1.55;;;1.45;;
6787;SDS011;3431;47.966;10.268;2022-08-04T00:53:32;2.87;;;1.60;;
6787;SDS011;3431;47.966;10.268;2022-08-04T00:54:05;1.70;;;1.60;;
6787;SDS011;3431;47.966;10.268;2022-08-04T00:54:33;1.70;;;1.60;;
6787;SDS011;3431;47.966;10.268;2022-08-04T00:55:26;1.63;;;1.52;;
6787;SDS011;3431;47.966;10.268;2022-08-04T00:56:03;1.55;;;1.50;;
6787;SDS011;3431;47.966;10.268;2022-08-04T00:56:56;1.70;;;1.60;;
6787;SDS011;3431;47.966;10.268;2022-08-04T00:57:30;1.48;;;1.38;;
6787;SDS011;3431;47.966;10.268;2022-08-04T00:58:05;1.70;;;1.60;;
6787;SDS011;3431;47.966;10.268;2022-08-04T00:58:46;1.67;;;1.58;;
6787;SDS011;3431;47.966;10.268;2022-08-04T00:59:23;1.60;;;1.50;;
6787;SDS011;3431;47.966;10.268;2022-08-04T01:00:03;1.52;;;1.42;;
6787;SDS011;3431;47.966;10.268;2022-08-04T01:00:30;1.70;;;1.60;;
6787;SDS011;3431;47.966;10.268;2022-08-04T01:01:00;1.60;;;1.50;;
6787;SDS011;3431;47.966;10.268;2022-08-04T01:01:32;2.70;;;1.40;;
6787;SDS011;3431;47.966;10.268;2022-08-04T01:02:06;1.63;;;1.52;;
6787;SDS011;3431;47.966;10.268;2022-08-04T01:02:38;1.98;;;1.80;;
6787;SDS011;3431;47.966;10.268;2022-08-04T01:03:13;1.80;;;1.70;;
6787;SDS011;3431;47.966;10.268;2022-08-04T01:03:49;1.48;;;1.40;;
6787;SDS011;3431;47.966;10.268;2022-08-04T01:04:20;1.50;;;1.40;;
6787;SDS011;3431;47.966;10.268;2022-08-04T01:04:55;1.60;;;1.50;;
6787;SDS011;3431;47.966;10.268;2022-08-04T01:05:25;1.60;;;1.50;;
6787;SDS011;3431;47.966;10.268;2022-08-04T01:05:56;1.70;;;1.60;;
6787;SDS011;3431;47.966;10.268;2022-08-04T01:06:29;1.73;;;1.58;;
6787;SDS011;3431;47.966;10.268;2022-08-04T01:07:04;1.83;;;1.73;;
6787;SDS011;3431;47.966;10.268;2022-08-04T01:07:44;1.50;;;1.40;;
6787;SDS011;3431;47.966;10.268;2022-08-04T01:08:35;1.73;;;1.63;;
6787;SDS011;3431;47.966;10.268;2022-08-04T01:09:17;1.40;;;1.30;;
6787;SDS011;3431;47.966;10.268;2022-08-04T01:10:00;1.70;;;1.60;;
6787;SDS011;3431;47.966;10.268;2022-08-04T01:10:27;2.60;;;1.45;;
6787;SDS011;3431;47.966;10.268;2022-08-04T01:11:02;1.73;;;1.63;;
6787;SDS011;3431;47.966;10.268;2022-08-04T01:11:41;1.55;;;1.45;;
6787;SDS011;3431;47.966;10.268;2022-08-04T01:12:19;1.92;;;1.77;;
6787;SDS011;3431;47.966;10.268;2022-08-04T01:13:12;1.52;;;1.42;;
6787;SDS011;3431;47.966;10.268;2022-08-04T01:13:59;1.60;;;1.50;;
6787;SDS011;3431;47.966;10.268;2022-08-04T01:15:22;1.60;;;1.50;;
6787;SDS011;3431;47.966;10.268;2022-08-04T01:15:55;1.70;;;1.60;;
6787;SDS011;3431;47.966;10.268;2022-08-04T01:16:22;1.50;;;1.40;;
6787;SDS011;3431;47.966;10.268;2022-08-04T01:16:48;2.25;;;1.70;;
6787;SDS011;3431;47.966;10.268;2022-08-04T01:17:16;2.30;;;1.77;;
6787;SDS011;3431;47.966;10.268;2022-08-04T01:17:44;2.13;;;1.75;;
6787;SDS011;3431;47.966;10.268;2022-08-04T01:18:17;1.75;;;1.65;;
6787;SDS011;3431;47.966;10.268;2022-08-04T01:18:45;1.75;;;1.65;;
6787;SDS011;3431;47.966;10.268;2022-08-04T01:19:21;1.85;;;1.60;;
6787;SDS011;3431;47.966;10.268;2022-08-04T01:20:02;1.83;;;1.73;;
6787;SDS011;3431;47.966;10.268;2022-08-04T01:20:28;1.73;;;1.63;;
6787;SDS011;3431;47.966;10.268;2022-08-04T01:20:57;1.75;;;1.65;;
6787;SDS011;3431;47.966;10.268;2022-08-04T01:21:48;2.25;;;1.75;;
6787;SDS011;3431;47.966;10.268;2022-08-04T01:23:34;1.75;;;1.65;;
6787;SDS011;3431;47.966;10.268;2022-08-04T01:25:02;1.60;;;1.50;;
6787;SDS011;3431;47.966;10.268;2022-08-04T01:25:45;1.50;;;1.40;;
6787;SDS011;3431;47.966;10.268;2022-08-04T01:26:29;1.70;;;1.60;;
6787;SDS011;3431;47.966;10.268;2022-08-04T01:27:10;1.70;;;1.60;;
6787;SDS011;3431;47.966;10.268;2022-08-04T01:27:48;2.28;;;1.67;;
6787;SDS011;3431;47.966;10.268;2022-08-04T01:28:27;1.70;;;1.60;;
6787;SDS011;3431;47.966;10.268;2022-08-04T01:29:02;1.73;;;1.63;;
6787;SDS011;3431;47.966;10.268;2022-08-04T01:29:26;1.93;;;1.80;;
6787;SDS011;3431;47.966;10.268;2022-08-04T01:29:53;2.03;;;1.50;;
6787;SDS011;3431;47.966;10.268;2022-08-04T01:30:16;1.50;;;1.40;;
6787;SDS011;3431;47.966;10.268;2022-08-04T01:30:39;1.83;;;1.70;;
6787;SDS011;3431;47.966;10.268;2022-08-04T01:31:05;1.80;;;1.70;;
6787;SDS011;3431;47.966;10.268;2022-08-04T01:31:33;1.70;;;1.60;;
6787;SDS011;3431;47.966;10.268;2022-08-04T01:32:01;1.70;;;1.60;;
6787;SDS011;3431;47.966;10.268;2022-08-04T01:32:27;1.60;;;1.50;;
6787;SDS011;3431;47.966;10.268;2022-08-04T01:32:55;1.77;;;1.67;;
6787;SDS011;3431;47.966;10.268;2022-08-04T01:33:21;1.63;;;1.52;;
6787;SDS011;3431;47.966;10.268;2022-08-04T01:33:49;1.70;;;1.60;;
6787;SDS011;3431;47.966;10.268;2022-08-04T01:34:15;1.70;;;1.60;;
6787;SDS011;3431;47.966;10.268;2022-08-04T01:34:40;1.93;;;1.60;;
6787;SDS011;3431;47.966;10.268;2022-08-04T01:35:07;1.42;;;1.33;;
6787;SDS011;3431;47.966;10.268;2022-08-04T01:35:35;1.98;;;1.80;;
6787;SDS011;3431;47.966;10.268;2022-08-04T01:36:04;2.00;;;1.80;;
6787;SDS011;3431;47.966;10.268;2022-08-04T01:36:26;1.60;;;1.50;;
6787;SDS011;3431;47.966;10.268;2022-08-04T01:36:56;1.98;;;1.67;;
6787;SDS011;3431;47.966;10.268;2022-08-04T01:37:22;1.80;;;1.70;;
6787;SDS011;3431;47.966;10.268;2022-08-04T01:37:57;2.05;;;1.95;;
6787;SDS011;3431;47.966;10.268;2022-08-04T01:38:23;1.80;;;1.70;;
6787;SDS011;3431;47.966;10.268;2022-08-04T01:38:47;1.70;;;1.60;;
6787;SDS011;3431;47.966;10.268;2022-08-04T01:39:08;2.33;;;1.92;;
6787;SDS011;3431;47.966;10.268;2022-08-04T01:39:48;2.10;;;1.90;;
6787;SDS011;3431;47.966;10.268;2022-08-04T01:40:12;1.80;;;1.60;;
6787;SDS011;3431;47.966;10.268;2022-08-04T01:40:35;1.70;;;1.60;;
6787;SDS011;3431;47.966;10.268;2022-08-04T01:40:58;2.15;;;1.77;;
6787;SDS011;3431;47.966;10.268;2022-08-04T01:41:23;1.92;;;1.83;;
6787;SDS011;3431;47.966;10.268;2022-08-04T01:41:45;1.70;;;1.60;;
6787;SDS011;3431;47.966;10.268;2022-08-04T01:42:07;1.70;;;1.60;;
6787;SDS011;3431;47.966;10.268;2022-08-04T01:42:32;1.80;;;1.70;;
6787;SDS011;3431;47.966;10.268;2022-08-04T01:42:55;1.75;;;1.65;;
6787;SDS011;3431;47.966;10.268;2022-08-04T01:43:20;1.75;;;1.63;;
6787;SDS011;3431;47.966;10.268;2022-08-04T01:43:43;1.77;;;1.67;;
6787;SDS011;3431;47.966;10.268;2022-08-04T01:44:08;2.00;;;1.90;;
6787;SDS011;3431;47.966;10.268;2022-08-04T01:44:32;1.80;;;1.70;;
6787;SDS011;3431;47.966;10.268;2022-08-04T01:44:56;1.80;;;1.70;;
6787;SDS011;3431;47.966;10.268;2022-08-04T01:45:22;1.70;;;1.60;;
6787;SDS011;3431;47.966;10.268;2022-08-04T01:45:45;1.73;;;1.63;;
6787;SDS011;3431;47.966;10.268;2022-08-04T01:46:11;1.70;;;1.60;;
6787;SDS011;3431;47.966;10.268;2022-08-04T01:46:34;1.88;;;1.73;;
6787;SDS011;3431;47.966;10.268;2022-08-04T01:46:56;1.67;;;1.58;;
6787;SDS011;3431;47.966;10.268;2022-08-04T01:47:21;1.70;;;1.60;;
6787;SDS011;3431;47.966;10.268;2022-08-04T01:47:48;1.88;;;1.77;;
6787;SDS011;3431;47.966;10.268;2022-08-04T01:48:12;1.88;;;1.67;;
6787;SDS011;3431;47.966;10.268;2022-08-04T01:48:35;2.45;;;1.80;;
6787;SDS011;3431;47.966;10.268;2022-08-04T01:48:59;1.77;;;1.67;;
6787;SDS011;3431;47.966;10.268;2022-08-04T01:49:22;1.83;;;1.73;;
6787;SDS011;3431;47.966;10.268;2022-08-04T01:49:50;1.92;;;1.70;;
6787;SDS011;3431;47.966;10.268;2022-08-04T01:50:17;2.00;;;1.60;;
6787;SDS011;3431;47.966;10.268;2022-08-04T01:50:40;1.80;;;1.70;;
6787;SDS011;3431;47.966;10.268;2022-08-04T01:51:05;1.60;;;1.50;;
6787;SDS011;3431;47.966;10.268;2022-08-04T01:51:28;1.73;;;1.63;;
6787;SDS011;3431;47.966;10.268;2022-08-04T01:51:55;2.05;;;1.80;;
6787;SDS011;3431;47.966;10.268;2022-08-04T01:52:18;2.13;;;1.90;;
6787;SDS011;3431;47.966;10.268;2022-08-04T01:52:41;2.08;;;1.88;;
6787;SDS011;3431;47.966;10.268;2022-08-04T01:53:03;1.88;;;1.77;;
6787;SDS011;3431;47.966;10.268;2022-08-04T01:53:28;2.20;;;1.88;;
6787;SDS011;3431;47.966;10.268;2022-08-04T01:53:51;1.92;;;1.75;;
6787;SDS011;3431;47.966;10.268;2022-08-04T01:54:12;1.83;;;1.73;;
6787;SDS011;3431;47.966;10.268;2022-08-04T01:54:37;1.90;;;1.70;;
6787;SDS011;3431;47.966;10.268;2022-08-04T01:55:03;2.08;;;1.88;;
6787;SDS011;3431;47.966;10.268;2022-08-04T01:55:27;1.55;;;1.45;;
6787;SDS011;3431;47.966;10.268;2022-08-04T01:55:51;1.65;;;1.55;;
6787;SDS011;3431;47.966;10.268;2022-08-04T01:56:14;2.00;;;1.90;;
6787;SDS011;3431;47.966;10.268;2022-08-04T01:56:36;1.80;;;1.70;;
6787;SDS011;3431;47.966;10.268;2022-08-04T01:56:59;1.88;;;1.77;;
6787;SDS011;3431;47.966;10.268;2022-08-04T01:57:26;1.88;;;1.77;;
6787;SDS011;3431;47.966;10.268;2022-08-04T01:57:49;2.70;;;1.80;;
6787;SDS011;3431;47.966;10.268;2022-08-04T01:58:12;1.80;;;1.70;;
6787;SDS011;3431;47.966;10.268;2022-08-04T01:58:38;1.77;;;1.67;;
6787;SDS011;3431;47.966;10.268;2022-08-04T01:59:00;1.83;;;1.73;;
6787;SDS011;3431;47.966;10.268;2022-08-04T01:59:25;1.80;;;1.70;;
6787;SDS011;3431;47.966;10.268;2022-08-04T01:59:51;1.70;;;1.60;;
6787;SDS011;3431;47.966;10.268;2022-08-04T02:00:14;1.77;;;1.67;;
6787;SDS011;3431;47.966;10.268;2022-08-04T02:00:37;1.80;;;1.70;;
6787;SDS011;3431;47.966;10.268;2022-08-04T02:01:08;1.90;;;1.80;;
6787;SDS011;3431;47.966;10.268;2022-08-04T02:01:33;2.22;;;1.70;;
6787;SDS011;3431;47.966;10.268;2022-08-04T02:01:56;1.90;;;1.80;;
6787;SDS011;3431;47.966;10.268;2022-08-04T02:02:20;1.75;;;1.65;;
6787;SDS011;3431;47.966;10.268;2022-08-04T02:02:43;2.00;;;1.90;;
6787;SDS011;3431;47.966;10.268;2022-08-04T02:03:06;1.70;;;1.60;;
6787;SDS011;3431;47.966;10.268;2022-08-04T02:03:27;2.22;;;1.70;;
6787;SDS011;3431;47.966;10.268;2022-08-04T02:03:49;2.30;;;1.80;;
6787;SDS011;3431;47.966;10.268;2022-08-04T02:04:12;1.70;;;1.60;;
6787;SDS011;3431;47.966;10.268;2022-08-04T02:04:35;1.80;;;1.70;;
6787;SDS011;3431;47.966;10.268;2022-08-04T02:04:57;1.75;;;1.65;;
6787;SDS011;3431;47.966;10.268;2022-08-04T02:05:19;1.70;;;1.60;;
6787;SDS011;3431;47.966;10.268;2022-08-04T02:05:43;2.10;;;2.00;;
6787;SDS011;3431;47.966;10.268;2022-08-04T02:06:13;1.88;;;1.67;;
6787;SDS011;3431;47.966;10.268;2022-08-04T02:06:49;1.80;;;1.70;;
6787;SDS011;3431;47.966;10.268;2022-08-04T02:08:07;1.83;;;1.67;;
6787;SDS011;3431;47.966;10.268;2022-08-04T02:08:44;1.98;;;1.88;;
6787;SDS011;3431;47.966;10.268;2022-08-04T02:09:13;2.00;;;1.80;;
6787;SDS011;3431;47.966;10.268;2022-08-04T02:09:43;2.03;;;1.85;;
6787;SDS011;3431;47.966;10.268;2022-08-04T02:10:15;2.00;;;1.80;;
6787;SDS011;3431;47.966;10.268;2022-08-04T02:10:48;1.95;;;1.85;;
6787;SDS011;3431;47.966;10.268;2022-08-04T02:11:19;2.00;;;1.90;;
6787;SDS011;3431;47.966;10.268;2022-08-04T02:11:43;1.70;;;1.60;;
6787;SDS011;3431;47.966;10.268;2022-08-04T02:12:17;1.77;;;1.67;;
6787;SDS011;3431;47.966;10.268;2022-08-04T02:12:51;2.00;;;1.90;;
6787;SDS011;3431;47.966;10.268;2022-08-04T02:13:19;2.10;;;1.90;;
6787;SDS011;3431;47.966;10.268;2022-08-04T02:13:46;1.92;;;1.83;;
6787;SDS011;3431;47.966;10.268;2022-08-04T02:14:18;1.88;;;1.77;;
6787;SDS011;3431;47.966;10.268;2022-08-04T02:15:10;1.80;;;1.70;;
6787;SDS011;3431;47.966;10.268;2022-08-04T02:15:41;2.00;;;1.80;;
6787;SDS011;3431;47.966;10.268;2022-08-04T02:16:14;2.15;;;1.98;;
6787;SDS011;3431;47.966;10.268;2022-08-04T02:16:44;2.17;;;2.00;;
6787;SDS011;3431;47.966;10.268;2022-08-04T02:17:10;1.90;;;1.80;;
6787;SDS011;3431;47.966;10.268;2022-08-04T02:17:35;1.80;;;1.70;;
6787;SDS011;3431;47.966;10.268;2022-08-04T02:18:08;1.80;;;1.70;;
6787;SDS011;3431;47.966;10.268;2022-08-04T02:18:38;2.30;;;1.80;;
6787;SDS011;3431;47.966;10.268;2022-08-04T02:19:14;1.92;;;1.83;;
6787;SDS011;3431;47.966;10.268;2022-08-04T02:19:50;1.80;;;1.70;;
6787;SDS011;3431;47.966;10.268;2022-08-04T02:20:28;2.17;;;2.00;;
6787;SDS011;3431;47.966;10.268;2022-08-04T02:20:54;1.70;;;1.60;;
6787;SDS011;3431;47.966;10.268;2022-08-04T02:21:18;2.10;;;1.90;;
6787;SDS011;3431;47.966;10.268;2022-08-04T02:21:41;2.30;;;2.10;;
6787;SDS011;3431;47.966;10.268;2022-08-04T02:22:09;2.20;;;2.10;;
6787;SDS011;3431;47.966;10.268;2022-08-04T02:22:39;2.20;;;2.00;;
6787;SDS011;3431;47.966;10.268;2022-08-04T02:23:08;2.40;;;2.00;;
6787;SDS011;3431;47.966;10.268;2022-08-04T02:23:35;2.08;;;1.90;;
6787;SDS011;3431;47.966;10.268;2022-08-04T02:23:59;2.05;;;1.85;;
6787;SDS011;3431;47.966;10.268;2022-08-04T02:24:26;2.35;;;1.90;;
6787;SDS011;3431;47.966;10.268;2022-08-04T02:24:52;1.92;;;1.80;;
6787;SDS011;3431;47.966;10.268;2022-08-04T02:25:23;2.00;;;1.90;;
6787;SDS011;3431;47.966;10.268;2022-08-04T02:25:48;2.20;;;1.80;;
6787;SDS011;3431;47.966;10.268;2022-08-04T02:26:16;2.10;;;1.90;;
6787;SDS011;3431;47.966;10.268;2022-08-04T02:26:40;2.40;;;2.20;;
6787;SDS011;3431;47.966;10.268;2022-08-04T02:27:03;2.15;;;2.05;;
6787;SDS011;3431;47.966;10.268;2022-08-04T02:27:28;1.92;;;1.83;;
6787;SDS011;3431;47.966;10.268;2022-08-04T02:27:56;2.10;;;1.98;;
6787;SDS011;3431;47.966;10.268;2022-08-04T02:28:34;1.80;;;1.70;;
6787;SDS011;3431;47.966;10.268;2022-08-04T02:29:02;2.97;;;2.10;;
6787;SDS011;3431;47.966;10.268;2022-08-04T02:29:39;2.05;;;1.95;;
6787;SDS011;3431;47.966;10.268;2022-08-04T02:30:11;1.88;;;1.77;;
6787;SDS011;3431;47.966;10.268;2022-08-04T02:30:35;1.80;;;1.70;;
6787;SDS011;3431;47.966;10.268;2022-08-04T02:31:07;2.08;;;1.98;;
6787;SDS011;3431;47.966;10.268;2022-08-04T02:31:36;2.05;;;1.85;;
6787;SDS011;3431;47.966;10.268;2022-08-04T02:32:03;2.17;;;2.00;;
6787;SDS011;3431;47.966;10.268;2022-08-04T02:32:28;2.25;;;2.00;;
6787;SDS011;3431;47.966;10.268;2022-08-04T02:32:51;2.05;;;1.85;;
6787;SDS011;3431;47.966;10.268;2022-08-04T02:33:18;1.90;;;1.80;;
6787;SDS011;3431;47.966;10.268;2022-08-04T02:33:44;1.92;;;1.83;;
6787;SDS011;3431;47.966;10.268;2022-08-04T02:34:15;2.17;;;1.98;;
6787;SDS011;3431;47.966;10.268;2022-08-04T02:34:44;2.72;;;2.00;;
6787;SDS011;3431;47.966;10.268;2022-08-04T02:35:26;1.98;;;1.88;;
6787;SDS011;3431;47.966;10.268;2022-08-04T02:35:50;2.47;;;1.90;;
6787;SDS011;3431;47.966;10.268;2022-08-04T02:36:20;2.15;;;1.95;;
6787;SDS011;3431;47.966;10.268;2022-08-04T02:36:43;2.10;;;1.70;;
6787;SDS011;3431;47.966;10.268;2022-08-04T02:37:09;2.17;;;1.80;;
6787;SDS011;3431;47.966;10.268;2022-08-04T02:37:32;1.95;;;1.85;;
6787;SDS011;3431;47.966;10.268;2022-08-04T02:38:00;1.90;;;1.80;;
6787;SDS011;3431;47.966;10.268;2022-08-04T02:38:42;1.90;;;1.80;;
6787;SDS011;3431;47.966;10.268;2022-08-04T02:39:18;2.38;;;1.90;;
6787;SDS011;3431;47.966;10.268;2022-08-04T02:39:40;2.67;;;2.10;;
6787;SDS011;3431;47.966;10.268;2022-08-04T02:40:05;5.97;;;2.10;;
6787;SDS011;3431;47.966;10.268;2022-08-04T02:40:30;1.90;;;1.80;;
6787;SDS011;3431;47.966;10.268;2022-08-04T02:40:52;2.00;;;1.90;;
6787;SDS011;3431;47.966;10.268;2022-08-04T02:41:16;2.05;;;1.95;;
6787;SDS011;3431;47.966;10.268;2022-08-04T02:41:39;1.92;;;1.83;;
6787;SDS011;3431;47.966;10.268;2022-08-04T02:42:03;2.08;;;1.98;;
6787;SDS011;3431;47.966;10.268;2022-08-04T02:42:25;1.92;;;1.83;;
6787;SDS011;3431;47.966;10.268;2022-08-04T02:42:52;2.00;;;1.90;;
6787;SDS011;3431;47.966;10.268;2022-08-04T02:43:16;2.00;;;1.90;;
6787;SDS011;3431;47.966;10.268;2022-08-04T02:43:40;1.90;;;1.80;;
6787;SDS011;3431;47.966;10.268;2022-08-04T02:44:05;1.90;;;1.80;;
6787;SDS011;3431;47.966;10.268;2022-08-04T02:44:28;2.00;;;1.90;;
6787;SDS011;3431;47.966;10.268;2022-08-04T02:44:51;2.20;;;2.00;;
6787;SDS011;3431;47.966;10.268;2022-08-04T02:45:20;2.25;;;2.05;;
6787;SDS011;3431;47.966;10.268;2022-08-04T02:45:45;2.08;;;1.90;;
6787;SDS011;3431;47.966;10.268;2022-08-04T02:46:08;2.13;;;1.92;;
6787;SDS011;3431;47.966;10.268;2022-08-04T02:46:32;1.95;;;1.85;;
6787;SDS011;3431;47.966;10.268;2022-08-04T02:46:56;1.90;;;1.80;;
6787;SDS011;3431;47.966;10.268;2022-08-04T02:47:20;2.78;;;2.10;;
6787;SDS011;3431;47.966;10.268;2022-08-04T02:47:43;2.30;;;2.10;;
6787;SDS011;3431;47.966;10.268;2022-08-04T02:48:08;2.92;;;2.05;;
6787;SDS011;3431;47.966;10.268;2022-08-04T02:48:32;2.00;;;1.90;;
6787;SDS011;3431;47.966;10.268;2022-08-04T02:48:56;2.20;;;2.00;;
6787;SDS011;3431;47.966;10.268;2022-08-04T02:49:22;2.15;;;2.00;;
6787;SDS011;3431;47.966;10.268;2022-08-04T02:49:44;2.30;;;2.10;;
6787;SDS011;3431;47.966;10.268;2022-08-04T02:50:08;2.20;;;2.00;;
6787;SDS011;3431;47.966;10.268;2022-08-04T02:50:34;2.30;;;2.10;;
6787;SDS011;3431;47.966;10.268;2022-08-04T02:50:57;2.13;;;2.03;;
6787;SDS011;3431;47.966;10.268;2022-08-04T02:51:27;2.40;;;2.13;;
6787;SDS011;3431;47.966;10.268;2022-08-04T02:51:52;2.53;;;2.05;;
6787;SDS011;3431;47.966;10.268;2022-08-04T02:52:17;2.17;;;2.08;;
6787;SDS011;3431;47.966;10.268;2022-08-04T02:52:40;2.58;;;2.13;;
6787;SDS011;3431;47.966;10.268;2022-08-04T02:53:04;2.30;;;1.90;;
6787;SDS011;3431;47.966;10.268;2022-08-04T02:53:28;2.03;;;1.92;;
6787;SDS011;3431;47.966;10.268;2022-08-04T02:53:53;2.03;;;1.90;;
6787;SDS011;3431;47.966;10.268;2022-08-04T02:54:19;1.95;;;1.83;;
6787;SDS011;3431;47.966;10.268;2022-08-04T02:54:46;2.00;;;1.90;;
6787;SDS011;3431;47.966;10.268;2022-08-04T02:55:11;2.17;;;2.00;;
6787;SDS011;3431;47.966;10.268;2022-08-04T02:55:34;2.10;;;1.90;;
6787;SDS011;3431;47.966;10.268;2022-08-04T02:55:57;2.00;;;1.90;;